Time;durP1;ratioP1;P1;durP2;ratioP2;P2;SDS_P1;SDS_P2;PMS_P1;PMS_P2;Temp;Humidity;BMP_temperature;BMP_pressure;BME280_temperature;BME280_humidity;BME280_pressure;Samples;Min_cycle;Max_cycle;Signal;HPM_P1;HPM_P2
2022/10/01 00:01:51;;;;;;;5.20;2.58;;;16.10;57.10;;;;;;5067633;28;44635;-74
2022/10/01 00:04:17;;;;;;;3.30;1.95;;;16.10;57.10;;;;;;5068030;28;45216;-75
2022/10/01 00:06:44;;;;;;;3.83;2.15;;;16.10;57.10;;;;;;5067457;28;45300;-74
2022/10/01 00:09:11;;;;;;;2.97;2.25;;;16.10;57.10;;;;;;5067705;28;45309;-74
2022/10/01 00:11:38;;;;;;;2.67;2.25;;;16.10;57.00;;;;;;5067481;28;45320;-75
2022/10/01 00:14:07;;;;;;;3.80;2.17;;;16.10;57.10;;;;;;5067797;28;45270;-74
2022/10/01 00:16:34;;;;;;;2.95;2.10;;;16.10;57.10;;;;;;5068258;28;45295;-74
2022/10/01 00:19:01;;;;;;;2.80;2.38;;;16.10;57.10;;;;;;5067856;28;46393;-74
2022/10/01 00:21:30;;;;;;;2.47;2.20;;;16.10;57.10;;;;;;5067896;28;45317;-74
2022/10/01 00:23:57;;;;;;;2.60;2.30;;;16.10;57.20;;;;;;5067745;28;45263;-74
2022/10/01 00:26:26;;;;;;;2.67;2.15;;;16.10;57.20;;;;;;5067978;28;45330;-74
2022/10/01 00:28:54;;;;;;;2.58;2.20;;;16.10;57.10;;;;;;5067342;28;45388;-74
2022/10/01 00:31:22;;;;;;;2.97;2.13;;;16.00;57.10;;;;;;5067544;28;45174;-74
2022/10/01 00:33:51;;;;;;;2.65;2.05;;;16.00;57.20;;;;;;5067835;28;45289;-74
2022/10/01 00:36:18;;;;;;;2.95;2.38;;;16.00;57.10;;;;;;5067512;28;45530;-74
2022/10/01 00:38:46;;;;;;;3.67;2.42;;;16.00;57.20;;;;;;5067716;28;46412;-74
2022/10/01 00:41:13;;;;;;;4.05;2.50;;;16.00;57.20;;;;;;5067355;28;45281;-74
2022/10/01 00:43:43;;;;;;;2.40;2.05;;;16.00;57.80;;;;;;5067685;28;45381;-74
2022/10/01 00:46:15;;;;;;;5.47;2.47;;;16.00;57.20;;;;;;5067640;28;45127;-74
2022/10/01 00:48:48;;;;;;;2.35;1.75;;;16.00;57.20;;;;;;5067285;28;45500;-74
2022/10/01 00:51:15;;;;;;;3.10;2.25;;;16.00;57.20;;;;;;5067346;28;45299;-74
2022/10/01 00:53:42;;;;;;;2.90;2.33;;;16.00;57.10;;;;;;5067319;28;45324;-74
2022/10/01 00:56:08;;;;;;;2.85;2.20;;;16.00;57.10;;;;;;5066922;28;45356;-74
2022/10/01 00:58:35;;;;;;;4.07;2.80;;;16.00;57.10;;;;;;5066653;28;45458;-74
2022/10/01 01:01:02;;;;;;;4.07;2.60;;;15.90;57.10;;;;;;5067094;28;45261;-74
2022/10/01 01:03:29;;;;;;;2.80;2.20;;;16.00;57.20;;;;;;5067276;28;45259;-74
2022/10/01 01:05:57;;;;;;;2.78;2.40;;;16.00;57.20;;;;;;5067085;28;45454;-74
2022/10/01 01:08:24;;;;;;;3.53;2.20;;;15.90;57.10;;;;;;5066810;28;46410;-74
2022/10/01 01:10:55;;;;;;;2.75;2.22;;;15.90;57.10;;;;;;5066794;28;45189;-74
2022/10/01 01:13:24;;;;;;;3.03;2.28;;;15.90;57.10;;;;;;5066044;28;45381;-74
2022/10/01 01:15:55;;;;;;;3.17;2.33;;;15.90;57.10;;;;;;5067166;28;45132;-74
2022/10/01 01:18:23;;;;;;;3.83;2.28;;;15.90;57.10;;;;;;5066661;28;45289;-74
2022/10/01 01:20:59;;;;;;;2.42;2.20;;;15.90;57.10;;;;;;5066700;28;45211;-74
2022/10/01 01:23:47;;;;;;;2.45;2.00;;;15.90;57.10;;;;;;5066737;28;45190;-74
2022/10/01 01:26:20;;;;;;;2.55;2.00;;;15.90;57.10;;;;;;5067074;28;45442;-74
2022/10/01 01:28:49;;;;;;;3.13;2.30;;;15.90;57.00;;;;;;5066825;28;47385;-74
2022/10/01 01:31:18;;;;;;;2.38;1.90;;;15.90;57.10;;;;;;5066430;28;45310;-74
2022/10/01 01:33:46;;;;;;;2.60;2.30;;;15.90;57.10;;;;;;5066709;28;45185;-74
2022/10/01 01:36:15;;;;;;;3.60;2.03;;;15.90;57.00;;;;;;5067102;28;45262;-74
2022/10/01 01:38:44;;;;;;;2.88;2.40;;;15.90;57.00;;;;;;5066613;28;47593;-74
2022/10/01 01:41:10;;;;;;;2.90;2.25;;;15.90;57.00;;;;;;5066537;28;45227;-74
2022/10/01 01:43:39;;;;;;;3.97;2.63;;;15.90;57.00;;;;;;5066761;28;45142;-74
2022/10/01 01:46:09;;;;;;;2.17;1.90;;;15.90;57.10;;;;;;5066325;28;45408;-74
2022/10/01 01:48:35;;;;;;;5.88;2.40;;;15.90;57.00;;;;;;5066020;28;45227;-74
2022/10/01 01:51:06;;;;;;;3.53;2.47;;;15.90;57.00;;;;;;5063589;28;45176;-75
2022/10/01 01:53:34;;;;;;;3.17;2.38;;;15.90;57.00;;;;;;5066362;28;45381;-74
2022/10/01 01:56:01;;;;;;;3.15;2.20;;;15.90;57.00;;;;;;5066626;28;45179;-74
2022/10/01 01:58:28;;;;;;;2.83;2.30;;;15.90;57.00;;;;;;5065350;28;45495;-74
2022/10/01 02:00:55;;;;;;;3.90;2.10;;;15.90;57.00;;;;;;5065730;28;45320;-74
2022/10/01 02:03:24;;;;;;;3.78;2.15;;;15.90;57.00;;;;;;5066208;28;45393;-75
2022/10/01 02:05:55;;;;;;;4.15;2.63;;;15.90;57.00;;;;;;5066566;28;45186;-75
2022/10/01 02:08:26;;;;;;;3.28;2.38;;;15.90;57.00;;;;;;5065581;28;46459;-74
2022/10/01 02:11:03;;;;;;;2.80;2.25;;;15.90;57.00;;;;;;5065694;28;45126;-75
2022/10/01 02:13:37;;;;;;;3.83;2.00;;;15.90;57.10;;;;;;5065864;28;45391;-74
2022/10/01 02:16:08;;;;;;;2.30;1.92;;;15.90;57.10;;;;;;5066178;28;45215;-76
2022/10/01 02:18:39;;;;;;;3.10;2.30;;;15.90;57.00;;;;;;5065929;28;47337;-74
2022/10/01 02:21:10;;;;;;;3.17;2.15;;;15.90;57.10;;;;;;5047509;28;45341;-74
2022/10/01 02:23:40;;;;;;;3.55;2.33;;;15.90;57.10;;;;;;5065970;28;45123;-74
2022/10/01 02:26:10;;;;;;;3.03;2.33;;;15.90;57.10;;;;;;5069454;28;45310;-74
2022/10/01 02:28:38;;;;;;;3.47;2.75;;;15.90;57.10;;;;;;5069080;28;47298;-74
2022/10/01 02:31:05;;;;;;;2.88;2.08;;;15.90;57.10;;;;;;5069113;28;45297;-74
2022/10/01 02:33:34;;;;;;;2.80;2.47;;;15.90;57.10;;;;;;5069175;28;45297;-74
2022/10/01 02:36:02;;;;;;;3.28;2.30;;;15.90;57.00;;;;;;5069273;28;45446;-74
2022/10/01 02:38:29;;;;;;;3.38;2.33;;;15.90;57.10;;;;;;5069002;28;46386;-74
2022/10/01 02:40:59;;;;;;;2.70;2.15;;;15.90;57.10;;;;;;5068999;28;45284;-74
2022/10/01 02:43:31;;;;;;;4.22;2.45;;;15.90;57.10;;;;;;5069065;28;45197;-74
2022/10/01 02:46:01;;;;;;;2.65;2.35;;;15.80;57.00;;;;;;5069440;28;45539;-74
2022/10/01 02:48:28;;;;;;;2.58;2.22;;;15.80;57.10;;;;;;5068653;28;46594;-74
2022/10/01 02:50:57;;;;;;;3.10;2.33;;;15.80;57.00;;;;;;5068803;28;45285;-74
2022/10/01 02:53:27;;;;;;;3.22;2.40;;;15.80;57.10;;;;;;5068922;28;45365;-74
2022/10/01 02:55:54;;;;;;;2.47;2.05;;;15.90;57.10;;;;;;5069370;28;45415;-74
2022/10/01 02:58:20;;;;;;;2.63;2.28;;;15.80;57.00;;;;;;5068835;28;46239;-74
2022/10/01 03:00:46;;;;;;;3.42;2.45;;;15.90;57.10;;;;;;5068070;28;45360;-75
2022/10/01 03:03:13;;;;;;;2.35;2.15;;;15.90;57.10;;;;;;5068948;28;45359;-74
2022/10/01 03:05:40;;;;;;;2.97;2.25;;;15.90;57.10;;;;;;5068821;28;45377;-74
2022/10/01 03:08:07;;;;;;;2.70;2.30;;;15.90;57.10;;;;;;5068442;28;45739;-74
2022/10/01 03:10:35;;;;;;;3.72;2.67;;;15.90;57.10;;;;;;5068707;28;45193;-74
2022/10/01 03:13:02;;;;;;;2.95;2.30;;;15.80;57.00;;;;;;5048491;28;45351;-74
2022/10/01 03:15:29;;;;;;;3.22;2.30;;;15.90;57.00;;;;;;5048608;28;45293;-74
2022/10/01 03:17:56;;;;;;;3.47;2.50;;;15.90;57.00;;;;;;5048939;28;45484;-75
2022/10/01 03:20:23;;;;;;;3.60;2.50;;;15.90;57.00;;;;;;5048430;28;45204;-75
2022/10/01 03:22:50;;;;;;;2.42;2.10;;;15.90;57.10;;;;;;5048676;28;45206;-74
2022/10/01 03:25:17;;;;;;;2.50;2.30;;;15.80;57.00;;;;;;5048473;28;45668;-75
2022/10/01 03:27:46;;;;;;;3.03;2.35;;;15.90;57.10;;;;;;5048107;28;46381;-75
2022/10/01 03:30:12;;;;;;;3.85;2.55;;;15.90;57.00;;;;;;5048235;28;45198;-74
2022/10/01 03:32:39;;;;;;;3.40;2.05;;;15.90;57.00;;;;;;5048550;28;45192;-75
2022/10/01 03:35:07;;;;;;;3.45;2.53;;;15.90;57.00;;;;;;5048620;28;45341;-74
2022/10/01 03:37:34;;;;;;;2.97;2.10;;;15.90;57.00;;;;;;5047576;28;45317;-74
2022/10/01 03:40:01;;;;;;;2.72;2.22;;;15.90;57.60;;;;;;5048250;28;45211;-74
2022/10/01 03:42:28;;;;;;;2.45;2.22;;;15.90;57.00;;;;;;5047975;28;45213;-74
2022/10/01 03:44:57;;;;;;;3.20;2.60;;;15.90;57.00;;;;;;5047592;28;45448;-74
2022/10/01 03:47:24;;;;;;;5.05;2.42;;;15.90;57.00;;;;;;5047926;28;46454;-75
2022/10/01 03:49:51;;;;;;;3.10;2.42;;;15.90;57.00;;;;;;5047881;28;45191;-74
2022/10/01 03:52:19;;;;;;;2.85;2.05;;;15.90;57.00;;;;;;5047908;28;45190;-74
2022/10/01 03:54:46;;;;;;;2.88;2.03;;;15.90;57.00;;;;;;5048026;28;45456;-74
2022/10/01 03:57:13;;;;;;;2.05;1.85;;;15.90;57.00;;;;;;5047646;28;46628;-75
2022/10/01 03:59:39;;;;;;;2.60;2.40;;;15.90;57.00;;;;;;5047657;28;45304;-75
2022/10/01 04:02:08;;;;;;;3.00;2.17;;;15.90;57.00;;;;;;5047804;28;45290;-74
2022/10/01 04:04:35;;;;;;;2.78;2.30;;;15.90;57.00;;;;;;5047975;28;45418;-74
2022/10/01 04:07:01;;;;;;;2.53;1.90;;;15.90;57.00;;;;;;5047463;28;45548;-75
2022/10/01 04:09:28;;;;;;;3.45;2.30;;;15.90;57.00;;;;;;5047451;28;45304;-74
2022/10/01 04:11:55;;;;;;;2.55;1.92;;;15.90;57.00;;;;;;5058663;28;45385;-75
2022/10/01 04:14:22;;;;;;;3.15;2.38;;;15.90;57.00;;;;;;5067903;28;45519;-75
2022/10/01 04:16:51;;;;;;;2.90;2.00;;;15.90;57.00;;;;;;5067546;28;45323;-75
2022/10/01 04:19:19;;;;;;;4.85;2.05;;;15.90;57.00;;;;;;5067545;28;45506;-74
2022/10/01 04:21:46;;;;;;;2.33;2.13;;;15.90;57.60;;;;;;5067698;28;45150;-74
2022/10/01 04:24:13;;;;;;;3.25;2.08;;;15.90;57.00;;;;;;5067850;28;45191;-74
2022/10/01 04:26:40;;;;;;;3.42;2.15;;;15.90;57.00;;;;;;5067451;28;46669;-74
2022/10/01 04:29:07;;;;;;;2.30;2.08;;;15.90;57.00;;;;;;5066719;28;45328;-75
2022/10/01 04:31:34;;;;;;;2.75;1.80;;;15.90;56.90;;;;;;5067442;28;45297;-74
2022/10/01 04:34:01;;;;;;;2.92;2.10;;;15.90;56.90;;;;;;5067948;28;45313;-74
2022/10/01 04:36:29;;;;;;;2.55;1.95;;;15.90;57.00;;;;;;5067196;28;45457;-74
2022/10/01 04:38:56;;;;;;;1.83;1.67;;;15.90;57.00;;;;;;5067184;28;45317;-74
2022/10/01 04:41:24;;;;;;;3.03;2.50;;;15.90;56.90;;;;;;5067407;28;45323;-74
2022/10/01 04:43:51;;;;;;;2.28;2.03;;;15.90;56.90;;;;;;5067600;28;45581;-75
2022/10/01 04:46:17;;;;;;;3.35;2.10;;;15.90;56.90;;;;;;5067225;28;46438;-75
2022/10/01 04:48:44;;;;;;;1.98;1.77;;;15.90;56.90;;;;;;5065776;28;45271;-75
2022/10/01 04:51:11;;;;;;;2.33;1.83;;;15.90;56.90;;;;;;5067158;28;45452;-75
2022/10/01 04:53:39;;;;;;;2.80;2.00;;;15.90;56.90;;;;;;5067369;28;45285;-74
2022/10/01 04:56:06;;;;;;;2.13;1.80;;;15.90;56.90;;;;;;5066690;28;45553;-74
2022/10/01 04:58:33;;;;;;;3.72;1.90;;;15.90;56.90;;;;;;5066894;28;45263;-75
2022/10/01 05:01:00;;;;;;;2.35;1.80;;;15.90;57.00;;;;;;5067108;28;45254;-75
2022/10/01 05:03:27;;;;;;;2.03;1.80;;;15.90;57.00;;;;;;5067217;28;45344;-74
2022/10/01 05:05:54;;;;;;;2.97;1.83;;;15.90;57.00;;;;;;5066625;28;46399;-74
2022/10/01 05:08:22;;;;;;;1.80;1.60;;;15.90;57.00;;;;;;5066799;28;45304;-74
2022/10/01 05:10:50;;;;;;;2.33;1.70;;;15.90;56.90;;;;;;5066620;28;45151;-74
2022/10/01 05:13:17;;;;;;;2.17;1.63;;;15.90;56.90;;;;;;5066443;28;45439;-74
2022/10/01 05:15:44;;;;;;;1.98;1.60;;;15.90;56.90;;;;;;5066394;28;45484;-74
2022/10/01 05:18:11;;;;;;;3.65;1.80;;;15.90;56.90;;;;;;5066852;28;45309;-74
2022/10/01 05:20:37;;;;;;;2.00;1.60;;;15.90;56.90;;;;;;5066857;28;45174;-74
2022/10/01 05:23:04;;;;;;;1.55;1.45;;;15.90;57.00;;;;;;5066896;28;45482;-76
2022/10/01 05:25:31;;;;;;;2.05;1.83;;;15.90;57.50;;;;;;5066449;28;46385;-75
2022/10/01 05:28:05;;;;;;;1.55;1.45;;;15.90;57.10;;;;;;5066394;28;45368;-75
2022/10/01 05:30:33;;;;;;;1.92;1.55;;;15.90;57.10;;;;;;5066649;28;45308;-74
2022/10/01 05:33:00;;;;;;;2.03;1.60;;;15.90;57.10;;;;;;5066651;28;45445;-75
2022/10/01 05:35:27;;;;;;;1.90;1.70;;;15.90;57.10;;;;;;5066089;28;46630;-74
2022/10/01 05:37:55;;;;;;;1.42;1.30;;;15.90;57.10;;;;;;5066366;28;45184;-74
2022/10/01 05:40:23;;;;;;;1.77;1.60;;;15.90;57.10;;;;;;5066448;28;45241;-75
2022/10/01 05:42:50;;;;;;;1.60;1.45;;;15.90;57.10;;;;;;5066558;28;45317;-74
2022/10/01 05:45:21;;;;;;;2.17;1.50;;;15.90;57.20;;;;;;5066153;28;45187;-74
2022/10/01 05:47:48;;;;;;;2.17;1.50;;;15.90;57.20;;;;;;5066408;28;45275;-74
2022/10/01 05:50:15;;;;;;;2.92;1.50;;;15.90;57.20;;;;;;5066543;28;45369;-74
2022/10/01 05:52:49;;;;;;;2.20;1.40;;;15.90;57.20;;;;;;5066507;28;45181;-74
2022/10/01 05:55:16;;;;;;;1.92;1.50;;;15.90;57.30;;;;;;5065840;28;45505;-74
2022/10/01 05:57:43;;;;;;;2.08;1.40;;;15.80;57.20;;;;;;5066101;28;45209;-74
2022/10/01 06:00:13;;;;;;;1.65;1.42;;;15.90;57.30;;;;;;5065725;28;45154;-74
2022/10/01 06:02:41;;;;;;;1.58;1.20;;;15.90;57.80;;;;;;5065559;28;45240;-74
2022/10/01 06:05:08;;;;;;;2.13;1.50;;;15.90;57.20;;;;;;5065688;28;45182;-74
2022/10/01 06:07:35;;;;;;;2.50;1.38;;;15.90;57.20;;;;;;5065868;28;45281;-74
2022/10/01 06:10:02;;;;;;;1.65;1.48;;;15.90;57.10;;;;;;5065997;28;45424;-74
2022/10/01 06:12:29;;;;;;;1.30;1.20;;;15.90;57.10;;;;;;5065826;28;45356;-73
2022/10/01 06:14:56;;;;;;;1.88;1.40;;;15.90;57.20;;;;;;5065624;28;46736;-74
2022/10/01 06:17:22;;;;;;;1.25;1.15;;;15.90;57.20;;;;;;5065753;28;45193;-73
2022/10/01 06:19:51;;;;;;;1.50;1.35;;;15.90;57.20;;;;;;5065935;28;45185;-73
2022/10/01 06:22:18;;;;;;;1.20;1.10;;;15.90;57.20;;;;;;5066148;28;45412;-73
2022/10/01 06:24:45;;;;;;;1.60;1.10;;;15.80;57.20;;;;;;5065800;28;46294;-74
2022/10/01 06:27:12;;;;;;;1.25;1.15;;;15.80;57.30;;;;;;5065770;28;45351;-73
2022/10/01 06:29:38;;;;;;;1.10;1.00;;;15.80;57.20;;;;;;5065613;28;45295;-74
2022/10/01 06:32:06;;;;;;;1.50;1.40;;;15.80;57.20;;;;;;5065824;28;45190;-74
2022/10/01 06:34:34;;;;;;;1.77;1.17;;;15.90;57.20;;;;;;5065297;28;46393;-74
2022/10/01 06:37:02;;;;;;;1.10;1.00;;;15.90;57.30;;;;;;5065501;28;45234;-74
2022/10/01 06:39:29;;;;;;;1.65;1.15;;;15.80;57.20;;;;;;5065724;28;45169;-73
2022/10/01 06:41:56;;;;;;;2.03;1.10;;;15.80;57.20;;;;;;5065850;28;45272;-73
2022/10/01 06:44:22;;;;;;;1.27;1.02;;;15.80;57.20;;;;;;5065458;28;46742;-73
2022/10/01 06:46:49;;;;;;;0.90;0.90;;;15.80;57.20;;;;;;5064597;28;45336;-73
2022/10/01 06:49:19;;;;;;;1.30;1.20;;;15.80;57.20;;;;;;5065359;28;45312;-73
2022/10/01 06:54:31;;;;;;;1.00;0.98;;;15.80;57.30;;;;;;5062325;28;45194;-73
2022/10/01 06:56:58;;;;;;;0.80;0.80;;;15.80;57.20;;;;;;5065346;28;45348;-73
2022/10/01 06:59:25;;;;;;;1.40;0.90;;;15.80;57.30;;;;;;5065394;28;45308;-73
2022/10/01 07:01:53;;;;;;;0.95;0.95;;;15.80;57.30;;;;;;5065633;28;45321;-73
2022/10/01 07:04:20;;;;;;;1.73;1.10;;;15.80;57.30;;;;;;5065218;28;45492;-73
2022/10/01 07:06:46;;;;;;;1.23;0.95;;;15.80;57.40;;;;;;5065248;28;45306;-73
2022/10/01 07:09:13;;;;;;;0.95;0.90;;;15.80;57.30;;;;;;5065253;28;45305;-73
2022/10/01 07:11:41;;;;;;;1.20;1.08;;;15.80;57.40;;;;;;5066861;28;45618;-73
2022/10/01 07:14:08;;;;;;;0.80;0.80;;;15.80;57.30;;;;;;5068571;28;45220;-73
2022/10/01 07:16:37;;;;;;;1.10;1.00;;;15.80;57.40;;;;;;5068465;28;45296;-73
2022/10/01 07:19:04;;;;;;;1.10;1.00;;;15.80;57.40;;;;;;5068731;28;45308;-73
2022/10/01 07:21:31;;;;;;;1.23;0.90;;;15.80;57.40;;;;;;5068720;28;45471;-73
2022/10/01 07:23:58;;;;;;;0.80;0.80;;;15.80;57.40;;;;;;5068269;28;46741;-74
2022/10/01 07:26:25;;;;;;;0.95;0.85;;;15.80;57.40;;;;;;5068578;28;45202;-74
2022/10/01 07:28:54;;;;;;;1.00;0.90;;;15.80;57.40;;;;;;5068593;28;45241;-73
2022/10/01 07:31:20;;;;;;;0.82;0.82;;;15.80;57.40;;;;;;5068887;28;45287;-73
2022/10/01 07:33:47;;;;;;;0.90;0.90;;;15.80;57.40;;;;;;5068129;28;45483;-73
2022/10/01 07:36:14;;;;;;;1.98;1.00;;;15.80;57.40;;;;;;5067174;28;45235;-71
2022/10/01 07:38:42;;;;;;;0.93;0.88;;;15.80;57.40;;;;;;5068027;28;45194;-73
2022/10/01 07:41:09;;;;;;;1.63;0.90;;;15.80;57.40;;;;;;5068256;28;45421;-74
2022/10/01 07:43:38;;;;;;;0.90;0.90;;;15.80;57.40;;;;;;5068082;28;45407;-73
2022/10/01 07:46:06;;;;;;;0.95;0.85;;;15.80;57.40;;;;;;5067972;28;45283;-73
2022/10/01 07:48:33;;;;;;;1.23;0.90;;;15.80;57.40;;;;;;5067485;28;45277;-73
2022/10/01 07:51:00;;;;;;;0.93;0.90;;;15.80;57.30;;;;;;5067392;28;45443;-73
2022/10/01 07:53:27;;;;;;;0.73;0.73;;;15.80;57.30;;;;;;5067312;28;45575;-74
2022/10/01 07:55:54;;;;;;;1.52;0.90;;;15.80;57.40;;;;;;5066998;28;45202;-73
2022/10/01 07:58:22;;;;;;;1.15;0.82;;;15.80;57.40;;;;;;5067497;28;45264;-74
2022/10/01 08:00:54;;;;;;;1.48;0.85;;;15.80;57.30;;;;;;5067445;28;45310;-74
2022/10/01 08:03:22;;;;;;;1.48;1.05;;;15.90;57.40;;;;;;5066941;28;45627;-75
2022/10/01 08:05:50;;;;;;;1.85;0.85;;;15.80;57.30;;;;;;5066939;28;45308;-74
2022/10/01 08:08:17;;;;;;;0.70;0.70;;;15.80;57.40;;;;;;5067150;28;45302;-74
2022/10/01 08:10:43;;;;;;;0.90;0.90;;;15.80;57.40;;;;;;5067125;28;45340;-74
2022/10/01 08:13:14;;;;;;;0.80;0.80;;;15.90;57.40;;;;;;5066609;28;45642;-74
2022/10/01 08:15:41;;;;;;;0.80;0.80;;;15.80;57.30;;;;;;5066647;28;45321;-74
2022/10/01 08:18:08;;;;;;;0.80;0.80;;;15.80;57.30;;;;;;5066826;28;45292;-74
2022/10/01 08:20:38;;;;;;;0.80;0.80;;;15.90;57.40;;;;;;5067278;28;45210;-75
2022/10/01 08:23:05;;;;;;;0.70;0.70;;;15.90;57.40;;;;;;5066362;28;45515;-74
2022/10/01 08:25:32;;;;;;;0.70;0.70;;;15.90;57.40;;;;;;5066706;28;45353;-74
2022/10/01 08:28:00;;;;;;;0.85;0.85;;;15.90;57.40;;;;;;5067015;28;45332;-74
2022/10/01 08:30:26;;;;;;;0.90;0.90;;;15.90;57.40;;;;;;5067330;28;45549;-74
2022/10/01 08:32:55;;;;;;;2.08;0.93;;;15.90;57.40;;;;;;5066524;28;45243;-74
2022/10/01 08:35:21;;;;;;;0.70;0.70;;;15.90;57.40;;;;;;5066392;28;45344;-74
2022/10/01 08:37:50;;;;;;;0.63;0.63;;;15.90;57.30;;;;;;5066772;28;45348;-74
2022/10/01 08:40:17;;;;;;;1.60;0.70;;;15.90;58.00;;;;;;5066964;28;45400;-74
2022/10/01 08:42:50;;;;;;;0.80;0.80;;;15.90;57.40;;;;;;5066326;28;46905;-74
2022/10/01 08:45:20;;;;;;;0.73;0.73;;;15.90;57.30;;;;;;5066247;28;45213;-74
2022/10/01 08:47:49;;;;;;;1.38;0.73;;;15.90;57.40;;;;;;5066662;28;45299;-75
2022/10/01 08:50:36;;;;;;;0.93;0.80;;;15.90;57.40;;;;;;5066723;28;45158;-74
2022/10/01 08:53:06;;;;;;;0.73;0.70;;;15.90;57.40;;;;;;5066304;28;45240;-75
2022/10/01 08:55:35;;;;;;;0.50;0.50;;;15.90;57.40;;;;;;5066617;28;45320;-75
2022/10/01 08:58:03;;;;;;;1.10;0.70;;;15.90;57.40;;;;;;5066620;28;45164;-74
2022/10/01 09:00:30;;;;;;;0.57;0.57;;;15.90;57.40;;;;;;5066699;28;45528;-75
2022/10/01 09:02:58;;;;;;;0.82;0.80;;;15.90;57.30;;;;;;5066352;28;45498;-74
2022/10/01 09:05:27;;;;;;;0.60;0.60;;;15.90;57.30;;;;;;5066284;28;45341;-76
2022/10/01 09:08:03;;;;;;;0.70;0.70;;;15.90;57.30;;;;;;5066418;28;45193;-74
2022/10/01 09:10:41;;;;;;;1.58;0.60;;;15.90;57.30;;;;;;5066256;28;45513;-74
2022/10/01 09:13:20;;;;;;;0.60;0.60;;;15.90;57.30;;;;;;5065821;28;46711;-75
2022/10/01 09:15:49;;;;;;;1.90;0.80;;;15.90;57.30;;;;;;5065887;28;45124;-75
2022/10/01 09:18:20;;;;;;;0.57;0.57;;;16.00;57.40;;;;;;5063454;28;45250;-75
2022/10/01 09:20:50;;;;;;;0.75;0.70;;;16.00;57.40;;;;;;5066051;28;45183;-75
2022/10/01 09:23:19;;;;;;;1.23;0.65;;;16.00;57.40;;;;;;5065659;28;46456;-74
2022/10/01 09:25:50;;;;;;;0.52;0.52;;;16.00;57.90;;;;;;5065891;28;45135;-75
2022/10/01 09:28:19;;;;;;;0.80;0.80;;;16.00;57.40;;;;;;5065923;28;45251;-74
2022/10/01 09:30:50;;;;;;;0.68;0.68;;;16.00;57.40;;;;;;5066061;28;45218;-74
2022/10/01 09:33:18;;;;;;;0.60;0.60;;;16.00;57.30;;;;;;5065121;28;45303;-75
2022/10/01 09:35:47;;;;;;;0.47;0.47;;;16.00;58.00;;;;;;5065358;28;45193;-74
2022/10/01 09:38:17;;;;;;;0.98;0.73;;;16.00;57.40;;;;;;5065748;28;45247;-74
2022/10/01 09:40:49;;;;;;;0.80;0.80;;;16.00;57.40;;;;;;5065838;28;45458;-74
2022/10/01 09:43:18;;;;;;;0.65;0.50;;;16.00;57.40;;;;;;5065375;28;46428;-74
2022/10/01 09:45:45;;;;;;;0.60;0.60;;;16.00;57.40;;;;;;5065532;28;45167;-75
2022/10/01 09:48:17;;;;;;;0.75;0.70;;;16.00;57.40;;;;;;5065456;28;45252;-74
2022/10/01 09:50:49;;;;;;;0.50;0.50;;;16.00;57.50;;;;;;5065553;28;45547;-74
2022/10/01 09:53:18;;;;;;;1.52;0.70;;;16.00;57.50;;;;;;5065302;28;45458;-75
2022/10/01 09:55:45;;;;;;;1.30;0.55;;;16.00;57.40;;;;;;5065250;28;45302;-74
2022/10/01 09:58:14;;;;;;;0.57;0.57;;;16.00;57.60;;;;;;5065360;28;45140;-74
2022/10/01 10:00:41;;;;;;;1.77;0.60;;;16.00;57.50;;;;;;5065647;28;45392;-74
2022/10/01 10:03:08;;;;;;;1.08;1.00;;;16.00;57.60;;;;;;5065085;28;45440;-74
2022/10/01 10:05:43;;;;;;;0.50;0.50;;;16.00;58.20;;;;;;5065132;28;45222;-74
2022/10/01 10:08:12;;;;;;;0.70;0.70;;;16.00;57.80;;;;;;5065164;28;45217;-74
2022/10/01 10:10:39;;;;;;;0.63;0.63;;;16.00;57.70;;;;;;5065385;28;45378;-73
2022/10/01 10:13:17;;;;;;;0.70;0.70;;;16.00;57.80;;;;;;5065429;28;46362;-75
2022/10/01 10:15:49;;;;;;;1.02;0.82;;;16.00;57.90;;;;;;5065330;28;45249;-74
2022/10/01 10:18:16;;;;;;;0.70;0.70;;;16.00;57.90;;;;;;5065698;28;45288;-74
2022/10/01 10:20:44;;;;;;;0.73;0.55;;;16.00;58.00;;;;;;5065510;28;45541;-75
2022/10/01 10:23:14;;;;;;;0.55;0.55;;;16.00;58.00;;;;;;5065049;28;45601;-75
2022/10/01 10:25:40;;;;;;;0.60;0.60;;;16.00;58.10;;;;;;5065461;28;45373;-74
2022/10/01 10:28:18;;;;;;;1.85;0.63;;;16.00;58.20;;;;;;5065294;28;45455;-75
2022/10/01 10:30:45;;;;;;;1.10;0.60;;;16.10;58.10;;;;;;5065657;28;45290;-74
2022/10/01 10:33:12;;;;;;;0.77;0.68;;;16.10;58.30;;;;;;5065055;28;45471;-74
2022/10/01 10:35:39;;;;;;;0.55;0.55;;;16.00;58.30;;;;;;5064860;28;45254;-73
2022/10/01 10:38:07;;;;;;;0.55;0.55;;;16.00;58.30;;;;;;5064997;28;45447;-74
2022/10/01 10:40:42;;;;;;;0.65;0.65;;;16.10;58.40;;;;;;5065079;28;45622;-75
2022/10/01 10:43:17;;;;;;;0.75;0.75;;;16.10;58.40;;;;;;5064831;28;46212;-74
2022/10/01 10:45:45;;;;;;;0.57;0.57;;;16.10;58.50;;;;;;5066644;28;45306;-74
2022/10/01 10:48:15;;;;;;;0.70;0.70;;;16.10;58.50;;;;;;5068572;28;45202;-74
2022/10/01 10:50:42;;;;;;;0.70;0.70;;;16.10;58.70;;;;;;5068503;28;45313;-74
2022/10/01 10:53:21;;;;;;;0.60;0.60;;;16.10;58.60;;;;;;5068052;28;46682;-74
2022/10/01 10:55:59;;;;;;;0.50;0.50;;;16.10;58.70;;;;;;5068278;28;45213;-74
2022/10/01 10:58:28;;;;;;;1.40;0.50;;;16.10;58.80;;;;;;5068220;28;45304;-74
2022/10/01 11:00:56;;;;;;;0.57;0.57;;;16.10;59.40;;;;;;5068465;28;45446;-74
2022/10/01 11:03:24;;;;;;;0.60;0.60;;;16.10;58.80;;;;;;5065456;28;45256;-74
2022/10/01 11:05:51;;;;;;;0.70;0.70;;;16.20;58.80;;;;;;5067944;28;45414;-74
2022/10/01 11:08:20;;;;;;;0.70;0.70;;;16.20;59.00;;;;;;5068201;28;45302;-74
2022/10/01 11:10:52;;;;;;;0.60;0.60;;;16.20;59.00;;;;;;5068000;28;45358;-73
2022/10/01 11:13:44;;;;;;;0.60;0.60;;;16.20;59.20;;;;;;5068065;28;47548;-73
2022/10/01 11:16:25;;;;;;;0.93;0.57;;;16.20;59.00;;;;;;5067806;28;45426;-75
2022/10/01 11:19:11;;;;;;;0.50;0.50;;;16.20;59.00;;;;;;5067810;28;45196;-72
2022/10/01 11:21:58;;;;;;;0.50;0.50;;;16.20;59.50;;;;;;5067590;28;45520;-73
2022/10/01 11:24:52;;;;;;;0.60;0.60;;;16.20;59.70;;;;;;5067469;28;45726;-74
2022/10/01 11:27:23;;;;;;;0.40;0.40;;;16.20;59.60;;;;;;5067058;28;45242;-73
2022/10/01 11:29:56;;;;;;;0.60;0.60;;;16.20;60.30;;;;;;5067869;28;45399;-75
2022/10/01 11:32:28;;;;;;;3.10;0.60;;;16.30;60.10;;;;;;5067911;28;45472;-74
2022/10/01 11:35:21;;;;;;;6.55;1.02;;;16.30;60.10;;;;;;5067371;28;46719;-73
2022/10/01 11:37:58;;;;;;;1.58;0.63;;;16.30;60.30;;;;;;5043887;28;45251;-73
2022/10/01 11:40:28;;;;;;;0.70;0.70;;;16.30;60.20;;;;;;5047462;28;45198;-73
2022/10/01 11:42:57;;;;;;;0.50;0.50;;;16.30;60.40;;;;;;5047613;28;45214;-73
2022/10/01 11:45:28;;;;;;;0.85;0.70;;;16.30;60.00;;;;;;5047060;28;46349;-73
2022/10/01 11:47:56;;;;;;;1.52;0.60;;;16.30;60.10;;;;;;5047120;28;45302;-73
2022/10/01 11:50:25;;;;;;;2.67;0.50;;;16.30;60.30;;;;;;5047355;28;45190;-74
2022/10/01 11:52:53;;;;;;;0.50;0.50;;;16.30;60.70;;;;;;5047583;28;45283;-73
2022/10/01 12:01:00;;;;;;;1.67;0.52;;;16.30;60.10;;;;;;5047314;28;45261;-74
2022/10/01 12:03:34;;;;;;;0.70;0.70;;;16.40;60.80;;;;;;5047153;28;45187;-74
2022/10/01 12:06:01;;;;;;;0.80;0.70;;;16.40;60.90;;;;;;5046759;28;45484;-74
2022/10/01 12:08:30;;;;;;;2.20;0.70;;;16.40;60.90;;;;;;5046853;28;45183;-73
2022/10/01 12:11:00;;;;;;;2.28;0.57;;;16.40;60.80;;;;;;5046599;28;45333;-74
2022/10/01 12:13:31;;;;;;;2.78;0.70;;;16.40;60.80;;;;;;5047099;28;45139;-74
2022/10/01 12:16:10;;;;;;;1.45;0.40;;;16.40;60.80;;;;;;5046574;28;46944;-73
2022/10/01 12:18:45;;;;;;;0.60;0.60;;;16.40;61.00;;;;;;5046434;28;45321;-74
2022/10/01 12:21:14;;;;;;;1.00;0.52;;;16.40;61.10;;;;;;5046714;28;45144;-74
2022/10/01 12:23:43;;;;;;;1.52;0.50;;;16.40;61.10;;;;;;5046810;28;45222;-73
2022/10/01 12:26:15;;;;;;;1.02;0.70;;;16.40;61.30;;;;;;5048631;28;45368;-74
2022/10/01 12:28:44;;;;;;;1.02;0.68;;;16.40;62.10;;;;;;5066731;28;45384;-74
2022/10/01 12:31:14;;;;;;;0.65;0.47;;;16.40;60.80;;;;;;5066588;28;45318;-74
2022/10/01 12:33:53;;;;;;;0.52;0.52;;;16.40;61.40;;;;;;5067033;28;45499;-75
2022/10/01 12:36:23;;;;;;;0.68;0.50;;;16.40;61.10;;;;;;5066379;28;45434;-74
2022/10/01 12:39:01;;;;;;;0.57;0.57;;;16.40;60.80;;;;;;5066599;28;45147;-74
2022/10/01 12:41:32;;;;;;;0.40;0.40;;;16.50;61.40;;;;;;5066755;28;45272;-74
2022/10/01 12:44:25;;;;;;;0.60;0.60;;;16.40;61.70;;;;;;5066680;28;45253;-74
2022/10/01 12:47:00;;;;;;;0.52;0.40;;;16.50;61.30;;;;;;5066409;28;46578;-74
2022/10/01 12:49:30;;;;;;;1.98;0.50;;;16.50;61.00;;;;;;5066474;28;45192;-74
2022/10/01 12:51:59;;;;;;;0.32;0.32;;;16.50;61.10;;;;;;5066706;28;45286;-74
2022/10/01 12:54:48;;;;;;;0.40;0.40;;;16.50;61.10;;;;;;5066613;28;45294;-74
2022/10/01 12:57:23;;;;;;;0.43;0.35;;;16.50;61.10;;;;;;5065971;28;46656;-74
2022/10/01 12:59:58;;;;;;;1.58;0.57;;;16.50;61.00;;;;;;5066179;28;45232;-74
2022/10/01 13:02:44;;;;;;;1.08;0.45;;;16.50;61.00;;;;;;5066328;28;45242;-74
2022/10/01 13:05:24;;;;;;;0.43;0.43;;;16.50;61.20;;;;;;5066320;28;45272;-74
2022/10/01 13:07:57;;;;;;;0.60;0.60;;;16.60;61.30;;;;;;5065660;28;45244;-74